createdAt,value
2022-11-21T00:01:15.976Z,43.80
2022-11-21T00:03:43.581Z,39.55
2022-11-21T00:06:10.741Z,44.97
2022-11-21T00:08:38.238Z,43.13
2022-11-21T00:11:05.343Z,46.15
2022-11-21T00:13:32.843Z,39.25
2022-11-21T00:16:07.062Z,43.03
2022-11-21T00:18:35.519Z,40.92
2022-11-21T00:21:07.506Z,38.03
2022-11-21T00:23:35.159Z,35.90
2022-11-21T00:26:10.004Z,29.35
2022-11-21T00:28:37.884Z,30.17
2022-11-21T00:31:06.022Z,33.53
2022-11-21T00:33:36.676Z,33.35
2022-11-21T00:36:08.699Z,38.65
2022-11-21T00:38:36.667Z,35.55
2022-11-21T00:41:04.306Z,35.50
2022-11-21T00:43:32.286Z,35.03
2022-11-21T00:46:01.485Z,38.40
2022-11-21T00:48:30.042Z,37.22
2022-11-21T00:50:57.492Z,33.20
2022-11-21T00:53:24.882Z,34.42
2022-11-21T00:55:52.033Z,37.13
2022-11-21T00:58:19.475Z,38.65
2022-11-21T01:00:46.778Z,36.35
2022-11-21T01:03:14.412Z,36.72
2022-11-21T01:05:41.563Z,35.22
2022-11-21T01:08:09.035Z,33.58
2022-11-21T01:10:36.657Z,37.63
2022-11-21T01:13:04.191Z,36.88
2022-11-21T01:15:31.299Z,33.30
2022-11-21T01:17:58.737Z,34.35
2022-11-21T01:20:26.054Z,35.78
2022-11-21T01:22:54.575Z,33.58
2022-11-21T01:25:21.739Z,38.72
2022-11-21T01:27:49.157Z,31.52
2022-11-21T01:30:17.436Z,37.30
2022-11-21T01:32:48.454Z,39.63
2022-11-21T01:35:16.013Z,37.63
2022-11-21T01:37:43.465Z,33.63
2022-11-21T01:40:11.607Z,40.85
2022-11-21T01:43:15.226Z,41.30
2022-11-21T01:45:58.410Z,35.88
2022-11-21T01:48:53.665Z,39.72
2022-11-21T01:51:25.112Z,41.20
2022-11-21T01:54:08.954Z,42.92
2022-11-21T01:56:47.243Z,54.90
2022-11-21T01:59:21.394Z,38.80
2022-11-21T02:01:52.045Z,47.33
2022-11-21T02:04:22.496Z,45.33
2022-11-21T02:06:49.668Z,44.13
2022-11-21T02:09:18.269Z,47.40
2022-11-21T02:11:52.574Z,45.25
2022-11-21T02:14:20.124Z,42.40
2022-11-21T02:16:47.559Z,40.03
2022-11-21T02:19:33.628Z,41.03
2022-11-21T02:22:12.541Z,40.10
2022-11-21T02:24:57.638Z,39.78
2022-11-21T02:27:24.797Z,40.58
2022-11-21T02:29:52.374Z,43.55
2022-11-21T02:32:36.883Z,44.63
2022-11-21T02:35:05.315Z,42.75
2022-11-21T02:37:35.501Z,47.60
2022-11-21T02:40:09.922Z,43.70
2022-11-21T02:42:42.092Z,53.95
2022-11-21T02:45:15.694Z,46.75
2022-11-21T02:47:45.299Z,58.90
2022-11-21T02:50:15.627Z,52.22
2022-11-21T02:52:42.873Z,57.78
2022-11-21T02:55:12.008Z,63.08
2022-11-21T02:57:40.186Z,60.08
2022-11-21T03:00:09.477Z,62.13
2022-11-21T03:02:37.747Z,63.92
2022-11-21T03:05:09.022Z,62.30
2022-11-21T03:07:36.583Z,55.80
2022-11-21T03:10:05.026Z,70.70
2022-11-21T03:12:32.207Z,61.42
2022-11-21T03:14:59.608Z,63.67
2022-11-21T03:17:26.739Z,67.88
2022-11-21T03:19:54.144Z,72.90
2022-11-21T03:22:21.296Z,71.05
2022-11-21T03:24:48.770Z,62.95
2022-11-21T03:27:15.931Z,70.18
2022-11-21T03:29:43.431Z,73.97
2022-11-21T03:32:10.707Z,69.93
2022-11-21T03:34:38.262Z,72.32
2022-11-21T03:37:05.385Z,71.55
2022-11-21T03:39:32.866Z,67.90
2022-11-21T03:42:00.007Z,66.18
2022-11-21T03:44:27.642Z,69.72
2022-11-21T03:46:54.834Z,65.00
2022-11-21T03:49:22.329Z,59.20
2022-11-21T03:51:49.514Z,66.20
2022-11-21T03:54:17.135Z,61.80
2022-11-21T03:56:44.269Z,61.53
2022-11-21T03:59:11.693Z,60.17
2022-11-21T04:01:38.888Z,60.75
2022-11-21T04:04:06.545Z,55.58
2022-11-21T04:06:33.782Z,51.83
2022-11-21T04:09:01.243Z,46.40
2022-11-21T04:11:28.593Z,49.28
2022-11-21T04:13:56.026Z,51.50
2022-11-21T04:16:23.183Z,49.22
2022-11-21T04:18:51.048Z,53.80
2022-11-21T04:21:18.163Z,47.47
2022-11-21T04:23:45.670Z,49.92
2022-11-21T04:26:12.850Z,46.58
2022-11-21T04:28:40.406Z,45.30
2022-11-21T04:31:11.057Z,53.53
2022-11-21T04:33:39.710Z,38.47
2022-11-21T04:36:08.418Z,48.47
2022-11-21T04:38:36.500Z,45.35
2022-11-21T04:41:04.851Z,44.67
2022-11-21T04:43:32.387Z,39.85
2022-11-21T04:45:59.555Z,43.60
2022-11-21T04:48:27.001Z,41.83
2022-11-21T04:50:54.170Z,40.70
2022-11-21T04:53:21.588Z,51.28
2022-11-21T04:55:49.057Z,44.47
2022-11-21T04:58:16.519Z,44.13
2022-11-21T05:00:43.714Z,42.47
2022-11-21T05:03:11.300Z,45.15
2022-11-21T05:05:38.707Z,43.47
2022-11-21T05:08:06.164Z,49.25
2022-11-21T05:10:53.341Z,50.28
2022-11-21T05:13:23.607Z,44.85
2022-11-21T05:15:56.564Z,44.65
2022-11-21T05:18:24.293Z,41.95
2022-11-21T05:20:51.428Z,47.78
2022-11-21T05:23:18.863Z,44.25
2022-11-21T05:25:46.007Z,42.67
2022-11-21T05:28:13.506Z,45.45
2022-11-21T05:30:40.692Z,45.75
2022-11-21T05:33:08.143Z,40.33
2022-11-21T05:35:40.129Z,42.83
2022-11-21T05:38:10.223Z,37.53
2022-11-21T05:40:37.857Z,38.92
2022-11-21T05:43:24.115Z,35.53
2022-11-21T05:45:51.263Z,39.47
2022-11-21T05:48:19.031Z,36.03
2022-11-21T05:50:52.092Z,33.72
2022-11-21T05:53:19.660Z,31.05
2022-11-21T05:55:46.925Z,38.25
2022-11-21T05:58:14.751Z,35.00
2022-11-21T06:00:42.197Z,37.28
2022-11-21T06:03:30.900Z,41.00
2022-11-21T06:06:16.953Z,39.20
2022-11-21T06:08:47.483Z,40.88
2022-11-21T06:11:16.725Z,39.80
2022-11-21T06:13:44.630Z,39.58
2022-11-21T06:16:16.885Z,41.70
2022-11-21T06:18:46.864Z,40.38
2022-11-21T06:21:22.370Z,38.42
2022-11-21T06:23:55.215Z,39.40
2022-11-21T06:26:25.033Z,40.83
2022-11-21T06:28:52.674Z,40.85
2022-11-21T06:31:22.429Z,32.28
2022-11-21T06:33:57.905Z,35.92
2022-11-21T06:36:25.781Z,36.78
2022-11-21T06:38:55.044Z,42.35
2022-11-21T06:41:24.674Z,34.13
2022-11-21T06:43:52.793Z,39.75
2022-11-21T06:46:19.999Z,46.33
2022-11-21T06:48:47.641Z,47.80
2022-11-21T06:51:22.951Z,51.92
2022-11-21T06:53:56.032Z,53.88
2022-11-21T06:56:28.209Z,52.65
2022-11-21T06:58:55.917Z,49.38
2022-11-21T07:01:23.960Z,58.90
2022-11-21T07:03:51.928Z,55.10
2022-11-21T07:06:19.397Z,49.05
2022-11-21T07:08:52.469Z,55.28
2022-11-21T07:11:27.318Z,56.47
2022-11-21T07:13:54.874Z,59.40
2022-11-21T07:16:22.099Z,54.95
2022-11-21T07:18:49.503Z,52.50
2022-11-21T07:21:16.894Z,60.85
2022-11-21T07:23:44.344Z,57.33
2022-11-21T07:26:11.571Z,60.08
2022-11-21T07:28:39.158Z,57.83
2022-11-21T07:31:12.884Z,55.08
2022-11-21T07:33:43.437Z,55.63
2022-11-21T07:36:13.920Z,62.58
2022-11-21T07:38:42.102Z,55.67
2022-11-21T07:41:09.933Z,59.28
2022-11-21T07:43:37.390Z,51.97
2022-11-21T07:46:04.754Z,54.00
2022-11-21T07:48:32.205Z,59.08
2022-11-21T07:50:59.367Z,57.08
2022-11-21T07:53:26.844Z,62.08
2022-11-21T07:55:54.036Z,56.08
2022-11-21T07:58:21.445Z,57.33
2022-11-21T08:00:48.593Z,54.58
2022-11-21T08:03:16.045Z,56.47
2022-11-21T08:05:44.309Z,58.03
2022-11-21T08:08:13.566Z,53.97
2022-11-21T08:10:45.666Z,48.25
2022-11-21T08:13:14.328Z,47.00
2022-11-21T08:15:41.567Z,45.83
2022-11-21T08:18:19.193Z,45.10
2022-11-21T08:20:46.996Z,46.60
2022-11-21T08:23:14.512Z,45.15
2022-11-21T08:25:42.879Z,50.75
2022-11-21T08:28:11.859Z,49.90
2022-11-21T08:30:40.005Z,53.45
2022-11-21T08:33:08.058Z,53.20
2022-11-21T08:35:37.894Z,52.75
2022-11-21T08:38:06.066Z,53.80
2022-11-21T08:40:34.154Z,57.13
2022-11-21T08:43:07.109Z,52.45
2022-11-21T08:45:35.928Z,51.05
2022-11-21T08:48:03.703Z,62.65
2022-11-21T08:50:32.190Z,60.10
2022-11-21T08:53:01.784Z,53.53
2022-11-21T08:55:30.205Z,54.25
2022-11-21T08:57:58.538Z,56.03
2022-11-21T09:00:26.476Z,55.20
2022-11-21T09:02:53.952Z,47.53
2022-11-21T09:05:21.120Z,52.80
2022-11-21T09:07:48.790Z,62.90
2022-11-21T09:10:16.249Z,55.28
2022-11-21T09:12:43.915Z,54.80
2022-11-21T09:15:29.980Z,65.38
2022-11-21T09:18:04.251Z,71.38
2022-11-21T09:20:34.194Z,75.70
2022-11-21T09:23:09.913Z,73.90
2022-11-21T09:25:37.150Z,79.55
2022-11-21T09:28:07.231Z,85.70
2022-11-21T09:30:35.208Z,81.60
2022-11-21T09:33:04.458Z,81.82
2022-11-21T09:35:32.288Z,87.85
2022-11-21T09:38:00.906Z,94.20
2022-11-21T09:40:31.192Z,93.68
2022-11-21T09:43:07.719Z,102.07
2022-11-21T09:45:44.407Z,96.78
2022-11-21T09:48:15.919Z,96.38
2022-11-21T09:50:52.275Z,92.18
2022-11-21T09:53:37.853Z,110.68
2022-11-21T09:56:07.139Z,104.82
2022-11-21T09:58:42.449Z,105.60
2022-11-21T10:01:14.025Z,96.90
2022-11-21T10:06:26.694Z,99.10
2022-11-21T10:09:14.167Z,108.72
2022-11-21T10:12:37.074Z,109.90
2022-11-21T10:15:38.128Z,105.68
2022-11-21T10:18:33.711Z,104.55
2022-11-21T10:21:16.036Z,95.22
2022-11-21T10:26:44.109Z,86.97
2022-11-21T10:29:27.659Z,96.65
2022-11-21T10:31:58.606Z,88.63
2022-11-21T10:34:31.029Z,84.03
2022-11-21T10:37:27.430Z,73.25
2022-11-21T10:39:55.966Z,82.90
2022-11-21T10:42:36.400Z,84.95
2022-11-21T10:45:17.302Z,92.35
2022-11-21T10:47:47.649Z,88.93
2022-11-21T10:50:51.827Z,87.80
2022-11-21T10:53:40.840Z,83.72
2022-11-21T10:56:12.851Z,85.38
2022-11-21T10:58:43.603Z,79.22
2022-11-21T11:01:48.055Z,95.22
2022-11-21T11:04:43.995Z,91.93
2022-11-21T11:07:27.055Z,94.30
2022-11-21T11:10:26.886Z,96.30
2022-11-21T11:13:38.799Z,99.93
2022-11-21T11:16:10.926Z,104.15
2022-11-21T11:18:47.116Z,104.57
2022-11-21T11:21:18.888Z,101.38
2022-11-21T11:23:47.424Z,98.00
2022-11-21T11:26:22.729Z,100.75
2022-11-21T11:28:50.157Z,95.53
2022-11-21T11:31:17.612Z,107.15
2022-11-21T11:33:47.720Z,96.78
2022-11-21T11:36:39.734Z,109.53
2022-11-21T11:39:51.827Z,111.85
2022-11-21T11:42:44.982Z,110.43
2022-11-21T11:45:30.790Z,112.70
2022-11-21T11:48:12.449Z,101.70
2022-11-21T11:50:49.822Z,118.25
2022-11-21T11:53:21.155Z,123.57
2022-11-21T11:56:17.004Z,121.43
2022-11-21T11:58:53.654Z,117.70
2022-11-21T12:01:39.867Z,113.03
2022-11-21T12:04:21.402Z,116.38
2022-11-21T12:10:14.264Z,126.25
2022-11-21T12:12:49.614Z,129.73
2022-11-21T12:15:41.781Z,125.25
2022-11-21T12:18:21.021Z,122.90
2022-11-21T12:20:51.457Z,123.28
2022-11-21T12:23:20.052Z,126.30
2022-11-21T12:26:33.723Z,119.47
2022-11-21T12:29:21.397Z,120.80
2022-11-21T12:31:57.699Z,126.78
2022-11-21T12:34:42.662Z,127.75
2022-11-21T12:37:41.092Z,124.63
2022-11-21T12:40:29.549Z,116.97
2022-11-21T12:43:29.765Z,120.88
2022-11-21T12:46:19.270Z,126.55
2022-11-21T12:49:14.596Z,130.65
2022-11-21T12:52:31.005Z,126.35
2022-11-21T12:55:04.390Z,117.72
2022-11-21T12:58:05.161Z,111.95
2022-11-21T13:00:44.794Z,124.82
2022-11-21T13:03:41.785Z,120.68
2022-11-21T13:06:22.597Z,126.80
2022-11-21T13:08:52.981Z,127.13
2022-11-21T13:12:00.531Z,129.32
2022-11-21T13:14:37.553Z,120.55
2022-11-21T13:17:11.030Z,123.45
2022-11-21T13:19:56.822Z,121.43
2022-11-21T13:22:36.528Z,126.25
2022-11-21T13:25:10.756Z,117.45
2022-11-21T13:27:39.985Z,120.70
2022-11-21T13:30:07.157Z,128.48
2022-11-21T13:32:46.285Z,121.13
2022-11-21T13:35:16.438Z,128.10
2022-11-21T13:38:08.487Z,120.80
2022-11-21T13:40:37.888Z,131.02
2022-11-21T13:43:35.519Z,130.38
2022-11-21T13:46:03.444Z,127.05
2022-11-21T13:48:31.262Z,137.75
2022-11-21T13:51:19.758Z,130.95
2022-11-21T13:54:18.252Z,130.00
2022-11-21T13:57:11.162Z,133.32
2022-11-21T13:59:49.831Z,129.85
2022-11-21T14:02:28.881Z,128.32
2022-11-21T14:05:37.945Z,127.35
2022-11-21T14:08:19.409Z,131.20
2022-11-21T14:10:48.451Z,131.80
2022-11-21T14:13:31.381Z,133.85
2022-11-21T14:16:10.994Z,130.63
2022-11-21T14:18:39.061Z,133.90
2022-11-21T14:21:08.358Z,142.10
2022-11-21T14:23:35.518Z,138.98
2022-11-21T14:26:04.383Z,133.07
2022-11-21T14:28:34.588Z,141.70
2022-11-21T14:31:10.546Z,145.68
2022-11-21T14:33:39.529Z,143.73
2022-11-21T14:36:21.127Z,136.18
2022-11-21T14:39:13.741Z,106.05
2022-11-21T14:41:39.781Z,137.32
2022-11-21T14:44:16.179Z,136.07
2022-11-21T14:46:45.339Z,129.77
2022-11-21T14:49:21.709Z,144.27
2022-11-21T14:52:08.337Z,142.30
2022-11-21T14:55:06.331Z,132.40
2022-11-21T14:57:38.877Z,139.77
2022-11-21T15:00:07.282Z,148.50
2022-11-21T15:02:35.061Z,153.13
2022-11-21T15:05:07.910Z,149.75
2022-11-21T15:07:47.748Z,153.90
2022-11-21T15:10:33.479Z,140.95
2022-11-21T15:13:07.543Z,151.88
2022-11-21T15:15:44.567Z,167.80
2022-11-21T15:18:33.325Z,146.30
2022-11-21T15:21:04.007Z,157.73
2022-11-21T15:23:33.015Z,154.98
2022-11-21T15:26:01.779Z,156.57
2022-11-21T15:28:30.700Z,162.00
2022-11-21T15:31:21.024Z,156.45
2022-11-21T15:37:24.517Z,163.05
2022-11-21T15:39:54.187Z,146.52
2022-11-21T15:42:33.706Z,164.05
2022-11-21T15:45:27.525Z,156.13
2022-11-21T15:47:56.001Z,168.52
2022-11-21T15:50:24.991Z,163.70
2022-11-21T15:52:53.621Z,162.77
2022-11-21T15:55:29.349Z,168.27
2022-11-21T15:57:56.626Z,167.82
2022-11-21T16:00:24.397Z,168.05
2022-11-21T16:02:51.853Z,167.20
2022-11-21T16:05:19.339Z,161.05
2022-11-21T16:07:48.496Z,162.23
2022-11-21T16:10:21.280Z,176.00
2022-11-21T16:12:53.279Z,169.77
2022-11-21T16:15:21.060Z,165.38
2022-11-21T16:17:48.254Z,180.57
2022-11-21T16:20:16.045Z,168.07
2022-11-21T16:22:47.828Z,171.02
2022-11-21T16:25:16.224Z,176.68
2022-11-21T16:27:43.457Z,174.65
2022-11-21T16:30:11.287Z,175.25
2022-11-21T16:32:38.523Z,169.23
2022-11-21T16:35:06.428Z,168.50
2022-11-21T16:37:34.272Z,158.35
2022-11-21T16:40:01.767Z,165.55
2022-11-21T16:42:31.341Z,156.00
2022-11-21T16:44:58.882Z,157.85
2022-11-21T16:47:26.096Z,167.20
2022-11-21T16:49:53.648Z,159.05
2022-11-21T16:52:20.851Z,165.88
2022-11-21T16:54:48.268Z,155.27
2022-11-21T16:57:15.379Z,151.68
2022-11-21T16:59:42.841Z,161.38
2022-11-21T17:02:11.069Z,150.93
2022-11-21T17:04:38.526Z,159.40
2022-11-21T17:07:05.850Z,153.13
2022-11-21T17:09:33.372Z,159.73
2022-11-21T17:12:00.574Z,161.07
2022-11-21T17:14:28.267Z,154.18
2022-11-21T17:16:55.767Z,152.80
2022-11-21T17:19:23.342Z,157.82
2022-11-21T17:21:50.504Z,164.05
2022-11-21T17:24:18.512Z,151.63
2022-11-21T17:26:45.777Z,152.60
2022-11-21T17:29:13.241Z,148.38
2022-11-21T17:31:41.919Z,166.00
2022-11-21T17:34:09.373Z,157.45
2022-11-21T17:36:36.507Z,152.32
2022-11-21T17:39:04.064Z,150.70
2022-11-21T17:41:31.259Z,152.02
2022-11-21T17:43:59.820Z,153.88
2022-11-21T17:46:28.439Z,155.52
2022-11-21T17:48:58.770Z,162.13
2022-11-21T17:51:33.480Z,153.73
2022-11-21T17:54:01.955Z,159.70
2022-11-21T17:56:31.431Z,166.65
2022-11-21T17:58:59.200Z,168.23
2022-11-21T18:01:27.075Z,164.38
2022-11-21T18:04:03.397Z,159.55
2022-11-21T18:06:39.029Z,175.48
2022-11-21T18:09:08.128Z,174.02
2022-11-21T18:11:39.934Z,171.07
2022-11-21T18:14:10.174Z,155.20
2022-11-21T18:16:39.577Z,163.23
2022-11-21T18:19:11.274Z,156.82
2022-11-21T18:21:38.581Z,168.40
2022-11-21T18:24:06.466Z,159.25
2022-11-21T18:26:36.698Z,159.95
2022-11-21T18:29:35.298Z,156.95
2022-11-21T18:31:54.217Z,156.68
2022-11-21T18:34:21.668Z,153.38
2022-11-21T18:36:48.887Z,152.02
2022-11-21T18:39:16.393Z,151.48
2022-11-21T18:41:44.117Z,154.23
2022-11-21T18:44:17.042Z,145.82
2022-11-21T18:46:48.154Z,156.90
2022-11-21T18:49:15.626Z,152.75
2022-11-21T18:51:42.772Z,158.95
2022-11-21T18:54:11.233Z,151.85
2022-11-21T18:56:39.640Z,151.27
2022-11-21T18:59:07.457Z,157.98
2022-11-21T19:01:36.249Z,152.43
2022-11-21T19:04:04.205Z,158.52
2022-11-21T19:06:31.942Z,148.32
2022-11-21T19:08:59.532Z,155.35
2022-11-21T19:11:29.056Z,138.02
2022-11-21T19:13:57.963Z,148.85
2022-11-21T19:16:27.362Z,149.57
2022-11-21T19:21:43.083Z,143.30
2022-11-21T19:24:13.412Z,144.45
2022-11-21T19:26:41.958Z,153.43
2022-11-21T19:29:10.120Z,153.20
2022-11-21T19:31:44.207Z,148.13
2022-11-21T19:34:16.250Z,164.48
2022-11-21T19:36:44.992Z,131.88
2022-11-21T19:39:12.844Z,149.65
2022-11-21T19:41:40.294Z,148.68
2022-11-21T19:44:08.000Z,153.18
2022-11-21T19:46:38.385Z,152.15
2022-11-21T19:49:07.911Z,148.63
2022-11-21T19:51:40.943Z,152.15
2022-11-21T19:54:11.352Z,149.38
2022-11-21T19:56:39.180Z,147.30
2022-11-21T19:59:06.886Z,157.05
2022-11-21T20:01:34.925Z,154.48
2022-11-21T20:04:04.837Z,149.43
2022-11-21T20:06:37.852Z,151.30
2022-11-21T20:09:11.132Z,143.13
2022-11-21T20:11:43.475Z,140.50
2022-11-21T20:14:18.037Z,138.88
2022-11-21T20:16:49.407Z,147.02
2022-11-21T20:19:18.923Z,139.10
2022-11-21T20:21:46.942Z,144.55
2022-11-21T20:24:14.919Z,150.55
2022-11-21T20:26:44.065Z,138.07
2022-11-21T20:29:13.762Z,138.73
2022-11-21T20:31:41.464Z,133.43
2022-11-21T20:34:12.893Z,134.13
2022-11-21T20:36:41.635Z,134.98
2022-11-21T20:39:14.728Z,138.43
2022-11-21T20:41:42.029Z,134.20
2022-11-21T20:45:20.328Z,127.60
2022-11-21T20:47:16.728Z,123.07
2022-11-21T20:49:44.160Z,124.00
2022-11-21T20:54:58.832Z,127.63
2022-11-21T20:57:27.634Z,132.27
2022-11-21T20:59:55.180Z,131.02
2022-11-21T21:02:22.355Z,133.93
2022-11-21T21:04:49.857Z,126.53
2022-11-21T21:07:17.163Z,122.90
2022-11-21T21:09:44.658Z,118.38
2022-11-21T21:12:11.817Z,115.85
2022-11-21T21:14:39.307Z,120.93
2022-11-21T21:17:06.455Z,116.93
2022-11-21T21:19:33.909Z,127.20
2022-11-21T21:22:01.227Z,116.95
2022-11-21T21:24:28.833Z,131.98
2022-11-21T21:26:56.106Z,126.25
2022-11-21T21:29:23.564Z,133.60
2022-11-21T21:31:52.310Z,124.00
2022-11-21T21:34:21.988Z,139.98
2022-11-21T21:36:50.819Z,140.77
2022-11-21T21:39:18.432Z,133.85
2022-11-21T21:41:46.697Z,134.60
2022-11-21T21:44:15.728Z,139.20
2022-11-21T21:46:43.232Z,133.00
2022-11-21T21:49:11.485Z,131.30
2022-11-21T21:51:38.914Z,133.70
2022-11-21T21:54:09.204Z,141.55
2022-11-21T21:56:36.385Z,144.38
2022-11-21T21:59:03.911Z,142.98
2022-11-21T22:01:32.544Z,142.25
2022-11-21T22:04:04.765Z,137.68
2022-11-21T22:06:34.937Z,133.35
2022-11-21T22:09:03.572Z,124.32
2022-11-21T22:11:33.082Z,131.05
2022-11-21T22:14:06.211Z,136.82
2022-11-21T22:16:33.655Z,128.68
2022-11-21T22:19:01.104Z,139.73
2022-11-21T22:21:32.634Z,136.98
2022-11-21T22:24:24.353Z,142.77
2022-11-21T22:26:49.469Z,140.70
2022-11-21T22:29:17.236Z,143.65
2022-11-21T22:31:44.452Z,136.13
2022-11-21T22:34:14.070Z,147.93
2022-11-21T22:36:42.175Z,140.05
2022-11-21T22:39:09.680Z,144.98
2022-11-21T22:41:36.931Z,147.38
2022-11-21T22:44:04.498Z,148.68
2022-11-21T22:46:31.735Z,147.88
2022-11-21T22:48:59.404Z,146.82
2022-11-21T22:51:29.663Z,151.35
2022-11-21T22:53:57.579Z,152.00
2022-11-21T22:56:25.590Z,153.55
2022-11-21T22:58:53.476Z,148.38
2022-11-21T23:01:23.550Z,153.75
2022-11-21T23:03:51.763Z,148.45
2022-11-21T23:06:21.853Z,144.95
2022-11-21T23:08:49.788Z,150.18
2022-11-21T23:11:19.939Z,153.00
2022-11-21T23:13:48.037Z,151.85
2022-11-21T23:16:16.387Z,141.68
2022-11-21T23:18:44.565Z,150.32
2022-11-21T23:21:13.015Z,144.38
2022-11-21T23:23:41.144Z,146.70
2022-11-21T23:26:08.396Z,147.90
2022-11-21T23:28:36.408Z,144.13
2022-11-21T23:31:03.634Z,136.65
2022-11-21T23:33:31.202Z,140.23
2022-11-21T23:35:58.442Z,139.45
2022-11-21T23:38:25.894Z,145.85
2022-11-21T23:40:53.179Z,144.63
2022-11-21T23:43:20.752Z,139.07
2022-11-21T23:45:55.007Z,137.40
2022-11-21T23:48:24.290Z,143.98
2022-11-21T23:50:51.717Z,150.45
2022-11-21T23:53:20.532Z,140.00
2022-11-21T23:55:48.502Z,134.30
2022-11-21T23:58:16.367Z,142.63
